Home > Products > Valid Products > TAF

000
FTUS42 KFFC 311100
TAFATL
TAF
KATL 311130Z 3112/0118 31008KT P6SM SCT150
     FM311400 32008KT P6SM SCT120
     FM311900 31012G20KT P6SM BKN080
     FM010100 33018G28KT P6SM BKN025 PROB30 0101/0106 6SM -SHRA
     FM011000 33020G30KT P6SM BKN035
     FM011600 32020G30KT P6SM SCT050=



000
FTUS42 KFFC 311100
TAFRYY
TAF
KRYY 311130Z 3112/0112 32002KT P6SM SKC
     FM311500 32006KT P6SM SCT120
     FM311900 31010G18KT P6SM BKN080
     FM010100 33016G26KT P6SM BKN025 PROB30 0101/0106 6SM -SHRA
     FM011000 33020G30KT P6SM BKN035=



000
FTUS42 KFFC 311100
TAFFTY
TAF
KFTY 311130Z 3112/0112 32003KT P6SM SKC
     FM311500 32006KT P6SM SCT120
     FM311900 31010G18KT P6SM BKN080
     FM010100 33016G26KT P6SM BKN025 PROB30 0101/0106 6SM -SHRA
     FM011000 33020G30KT P6SM BKN035=



000
FTUS42 KFFC 311100
TAFPDK
TAF
KPDK 311130Z 3112/0112 32002KT P6SM SKC
     FM311500 32006KT P6SM SCT120
     FM311900 31010G18KT P6SM BKN080
     FM010100 33016G26KT P6SM BKN025 PROB30 0101/0106 6SM -SHRA
     FM011000 33020G30KT P6SM BKN035=



000
FTUS42 KFFC 311100
TAFAHN
TAF
KAHN 311130Z 3112/0112 32002KT P6SM SKC
     FM311600 32006KT P6SM SCT120
     FM312000 31010G18KT P6SM BKN080
     FM010200 33016G26KT P6SM BKN025 PROB30 0102/0106 6SM -SHRA
     FM011000 33020G30KT P6SM BKN035=



000
FTUS42 KFFC 311100
TAFMCN
TAF
KMCN 311130Z 3112/0112 28002KT P6SM SKC
     FM311600 32006KT P6SM SCT120
     FM312100 31010G18KT P6SM BKN080
     FM010300 33016G26KT P6SM BKN025
     FM011000 33020G30KT P6SM BKN035=



000
FTUS42 KFFC 311100
TAFCSG
TAF
KCSG 311130Z 3112/0112 34005KT P6SM SKC
     FM311600 32008KT P6SM SCT120
     FM312000 31010G18KT P6SM BKN080
     FM010200 33016G26KT P6SM BKN025
     FM011000 33020G30KT P6SM BKN035=



000
FTUS42 KFFC 311000 AAB
TAFATL
TAF AMD
KATL 311012Z 3110/0112 31008KT P6SM FEW150
     FM311400 32008KT P6SM SCT120
     FM311900 31012G20KT P6SM BKN080
     FM010100 33018G28KT P6SM BKN025 PROB30 0101/0106 6SM -SHRA
     FM011000 33020G30KT P6SM BKN035=



000
FTUS42 KFFC 310700 AAA
TAFATL
TAF AMD
KATL 310732Z 3108/0112 31006KT P6SM SKC
     FM311400 32008KT P6SM SCT120
     FM311900 31012G20KT P6SM BKN080
     FM010100 33018G28KT P6SM BKN025 PROB30 0101/0106 6SM -SHRA
     FM011000 33020G30KT P6SM BKN035=



000
FTUS42 KFFC 310500 RRA
TAFFTY
TAF
KFTY 310543Z 3106/0106 32002KT P6SM SKC
     FM311500 32006KT P6SM SCT120
     FM311900 31010G18KT P6SM BKN080
     FM010100 33016G26KT P6SM BKN025 PROB30 0101/0106 6SM -SHRA=



000
FTUS42 KFFC 310500 RRA
TAFMCN
TAF
KMCN 310543Z 3106/0106 28004KT P6SM SKC
     FM311600 32006KT P6SM SCT120
     FM312100 31010G18KT P6SM BKN080
     FM010300 33016G26KT P6SM BKN025=



000
FTUS42 KFFC 310500 RRA
TAFAHN
TAF
KAHN 310543Z 3106/0106 32002KT P6SM SKC
     FM311600 32006KT P6SM SCT120
     FM312000 31010G18KT P6SM BKN080
     FM010200 33016G26KT P6SM BKN025 PROB30 0102/0106 6SM -SHRA=



000
FTUS42 KFFC 310500 RRA
TAFCSG
TAF
KCSG 310543Z 3106/0106 32002KT P6SM SKC
     FM311600 32006KT P6SM SCT120
     FM312000 31010G18KT P6SM BKN080
     FM010200 33016G26KT P6SM BKN025=



000
FTUS42 KFFC 310500 RRA
TAFATL
TAF
KATL 310543Z 3106/0112 32004KT P6SM SKC
     FM311400 32008KT P6SM SCT120
     FM311900 31012G20KT P6SM BKN080
     FM010100 33018G28KT P6SM BKN025 PROB30 0101/0106 6SM -SHRA
     FM011000 33020G30KT P6SM BKN035=



000
FTUS42 KFFC 310500 RRA
TAFPDK
TAF
KPDK 310543Z 3106/0106 32002KT P6SM SKC
     FM311500 32006KT P6SM SCT120
     FM311900 31010G18KT P6SM BKN080
     FM010100 33016G26KT P6SM BKN025 PROB30 0101/0106 6SM -SHRA=



000
FTUS42 KFFC 310500 RRA
TAFRYY
TAF
KRYY 310543Z 3106/0106 32002KT P6SM SKC
     FM311500 32006KT P6SM SCT120
     FM311900 31010G18KT P6SM BKN080
     FM010100 33016G26KT P6SM BKN025 PROB30 0101/0106 6SM -SHRA
      AMD NOT SKED TIL 311200=



000
FTUS42 KFFC 310300 AAB
TAFATL
TAF AMD
KATL 310330Z 3104/0106 32004KT P6SM SKC
     FM311400 32008KT P6SM SCT120
     FM311900 31012G20KT P6SM BKN080
     FM010100 33018G28KT P6SM BKN022 PROB30 0101/0106 6SM -SHRA=



000
FTUS42 KFFC 310300 AAA
TAFCSG
TAF AMD
KCSG 310330Z 3104/3124 34004KT P6SM SKC
     FM311400 32007KT P6SM FEW120
     FM312000 31010G17KT P6SM BKN100=



000
FTUS42 KFFC 310100 AAA
TAFATL
TAF AMD
KATL 310140Z 3102/0106 32005KT P6SM SKC
     FM311400 32008KT P6SM SCT120
     FM311900 31012G20KT P6SM BKN080
     FM010100 33018G28KT P6SM BKN022 PROB30 0101/0106 6SM -SHRA=



000
FTUS42 KFFC 302300
TAFMCN
TAF
KMCN 302320Z 3100/3124 34004KT P6SM SKC
     FM310200 00000KT P6SM SKC
     FM311400 31008KT P6SM FEW120
     FM312100 31010G17KT P6SM BKN120=



000
FTUS42 KFFC 302300
TAFATL
TAF
KATL 302320Z 3100/0106 32007KT P6SM SKC
     FM310100 32004KT P6SM SKC
     FM311400 32008KT P6SM SCT120
     FM311900 31012G20KT P6SM BKN080
     FM010100 33018G28KT P6SM BKN022 PROB30 0101/0106 6SM -SHRA=



000
FTUS42 KFFC 302300
TAFPDK
TAF
KPDK 302320Z 3100/3124 30004KT P6SM SKC
     FM310200 00000KT P6SM SKC
     FM311400 32007KT P6SM SCT120
     FM311900 31011G19KT P6SM BKN080=



000
FTUS42 KFFC 302300
TAFCSG
TAF
KCSG 302320Z 3100/3124 34005KT P6SM SKC
     FM310200 33003KT P6SM SKC
     FM311400 32007KT P6SM FEW120
     FM312000 31010G17KT P6SM BKN100=



000
FTUS42 KFFC 302300
TAFFTY
TAF
KFTY 302320Z 3100/3124 32004KT P6SM SKC
     FM310200 00000KT P6SM SKC
     FM311400 32006KT P6SM SCT120
     FM311900 31010G18KT P6SM BKN080=



000
FTUS42 KFFC 302300
TAFAHN
TAF
KAHN 302320Z 3100/3124 00000KT P6SM SKC
     FM311400 30007KT P6SM SCT120
     FM312000 29010G18KT P6SM BKN080=



000
FTUS42 KFFC 302300
TAFRYY
TAF
KRYY 302320Z 3100/3124 31004KT P6SM SKC
     FM310200 00000KT P6SM SKC
     FM311400 32007KT P6SM SCT120
     FM311900 31012G20KT P6SM BKN080
      AMD NOT SKED 3104/3112=



000
FTUS42 KFFC 302100 AAA
TAFFTY
TAF AMD
KFTY 302141Z 3022/3118 33006KT P6SM SKC
     FM310100 00000KT P6SM SKC
     FM311400 32005KT P6SM SCT120=



000
FTUS42 KFFC 302100 AAA
TAFMCN
TAF AMD
KMCN 302141Z 3022/3118 36004KT P6SM SKC
     FM310100 00000KT P6SM SKC
     FM311400 31005KT P6SM FEW120=



000
FTUS42 KFFC 302100 AAA
TAFRYY
TAF AMD
KRYY 302141Z 3022/3118 32006KT P6SM SKC
     FM310200 00000KT P6SM SKC
     FM311400 32005KT P6SM SCT120=



000
FTUS42 KFFC 302100 AAA
TAFAHN
TAF AMD
KAHN 302141Z 3022/3118 VRB04KT P6SM SKC
     FM310000 00000KT P6SM SKC
     FM311400 34004KT P6SM SCT120=



000
FTUS42 KFFC 302100 AAA
TAFCSG
TAF AMD
KCSG 302141Z 3022/3118 32006KT P6SM SKC
     FM310100 33003KT P6SM SKC
     FM311400 32005KT P6SM FEW120=



000
FTUS42 KFFC 302100 AAA
TAFPDK
TAF AMD
KPDK 302141Z 3022/3118 32006KT P6SM SKC
     FM310100 00000KT P6SM SKC
     FM311400 32005KT P6SM SCT120=



000
FTUS42 KFFC 302100 AAB
TAFATL
TAF AMD
KATL 302141Z 3022/3124 33008KT P6SM SKC
     FM310100 32004KT P6SM SKC
     FM311400 32007KT P6SM SCT120
     FM311900 31011G18KT P6SM BKN080=



000
FTUS42 KFFC 302100 AAA
TAFFTY
TAF AMD
KFTY 302141Z 3022/3118 33006KT P6SM SKC
     FM310100 00000KT P6SM SKC
     FM311400 32005KT P6SM SCT120=



000
FTUS42 KFFC 302100 AAA
TAFMCN
TAF AMD
KMCN 302141Z 3022/3118 36004KT P6SM SKC
     FM310100 00000KT P6SM SKC
     FM311400 31005KT P6SM FEW120=



000
FTUS42 KFFC 302100 AAA
TAFRYY
TAF AMD
KRYY 302141Z 3022/3118 32006KT P6SM SKC
     FM310200 00000KT P6SM SKC
     FM311400 32005KT P6SM SCT120=



000
FTUS42 KFFC 302100 AAA
TAFAHN
TAF AMD
KAHN 302141Z 3022/3118 VRB04KT P6SM SKC
     FM310000 00000KT P6SM SKC
     FM311400 34004KT P6SM SCT120=



000
FTUS42 KFFC 302100 AAA
TAFCSG
TAF AMD
KCSG 302141Z 3022/3118 32006KT P6SM SKC
     FM310100 33003KT P6SM SKC
     FM311400 32005KT P6SM FEW120=



000
FTUS42 KFFC 302100 AAA
TAFPDK
TAF AMD
KPDK 302141Z 3022/3118 32006KT P6SM SKC
     FM310100 00000KT P6SM SKC
     FM311400 32005KT P6SM SCT120=



000
FTUS42 KFFC 302100 AAB
TAFATL
TAF AMD
KATL 302141Z 3022/3124 33008KT P6SM SKC
     FM310100 32004KT P6SM SKC
     FM311400 32007KT P6SM SCT120
     FM311900 31011G18KT P6SM BKN080=



000
FTUS42 KFFC 301900 AAA
TAFATL
TAF AMD
KATL 301952Z 3020/3124 34008KT P6SM SKC
     FM310100 31005KT P6SM SKC
     FM311200 32006KT P6SM SCT120
     FM311800 31011G18KT P6SM SCT080=



000
FTUS42 KFFC 301700
TAFAHN
TAF
KAHN 301740Z 3018/3118 04006KT P6SM SKC
     FM310000 00000KT P6SM SKC
     FM311200 35004KT P6SM SCT120=



000
FTUS42 KFFC 301700
TAFATL
TAF
KATL 301740Z 3018/3124 01007KT P6SM SKC
     FM301900 34008KT P6SM SKC
     FM310100 31005KT P6SM SKC
     FM311200 32006KT P6SM SCT120
     FM311800 31011G18KT P6SM SCT080=



000
FTUS42 KFFC 301700
TAFFTY
TAF
KFTY 301740Z 3018/3118 34006KT P6SM SKC
     FM310000 00000KT P6SM SKC
     FM311200 32004KT P6SM SCT120=



000
FTUS42 KFFC 301700
TAFRYY
TAF
KRYY 301740Z 3018/3118 34006KT P6SM SKC
     FM310000 00000KT P6SM SKC
     FM311200 32004KT P6SM SCT120=



000
FTUS42 KFFC 301700
TAFCSG
TAF
KCSG 301740Z 3018/3118 03005KT P6SM SKC
     FM302000 34006KT P6SM SKC
     FM310000 34003KT P6SM SKC
     FM311200 32004KT P6SM FEW120=



000
FTUS42 KFFC 301700
TAFAHN
TAF
KAHN 301740Z 3018/3118 04006KT P6SM SKC
     FM310000 00000KT P6SM SKC
     FM311200 35004KT P6SM SCT120=



000
FTUS42 KFFC 301700
TAFATL
TAF
KATL 301740Z 3018/3124 01007KT P6SM SKC
     FM301900 34008KT P6SM SKC
     FM310100 31005KT P6SM SKC
     FM311200 32006KT P6SM SCT120
     FM311800 31011G18KT P6SM SCT080=



000
FTUS42 KFFC 301700
TAFPDK
TAF
KPDK 301740Z 3018/3118 34006KT P6SM SKC
     FM310000 00000KT P6SM SKC
     FM311200 32004KT P6SM SCT120=



000
FTUS42 KFFC 301700
TAFMCN
TAF
KMCN 301740Z 3018/3118 03006KT P6SM SCT040
     FM302100 33003KT P6SM SKC
     FM310000 00000KT P6SM SKC
     FM311200 32004KT P6SM FEW120=



000
FTUS42 KFFC 301700
TAFPDK
TAF
KPDK 301740Z 3018/3118 34006KT P6SM SKC
     FM310000 00000KT P6SM SKC
     FM311200 32004KT P6SM SCT120=



000
FTUS42 KFFC 301700
TAFFTY
TAF
KFTY 301740Z 3018/3118 34006KT P6SM SKC
     FM310000 00000KT P6SM SKC
     FM311200 32004KT P6SM SCT120=



000
FTUS42 KFFC 301700
TAFRYY
TAF
KRYY 301740Z 3018/3118 34006KT P6SM SKC
     FM310000 00000KT P6SM SKC
     FM311200 32004KT P6SM SCT120=



000
FTUS42 KFFC 301700
TAFMCN
TAF
KMCN 301740Z 3018/3118 03006KT P6SM SCT040
     FM302100 33003KT P6SM SKC
     FM310000 00000KT P6SM SKC
     FM311200 32004KT P6SM FEW120=



000
FTUS42 KFFC 301700
TAFCSG
TAF
KCSG 301740Z 3018/3118 03005KT P6SM SKC
     FM302000 34006KT P6SM SKC
     FM310000 34003KT P6SM SKC
     FM311200 32004KT P6SM FEW120=



000
FTUS42 KFFC 301500 AAB
TAFATL
TAF AMD
KATL 301543Z 3016/3118 03007KT P6SM FEW050
     FM301900 34008KT P6SM SKC
     FM310200 31005KT P6SM FEW250
     FM311200 32006KT P6SM SCT120=



000
FTUS42 KFFC 301400 AAA
TAFATL
TAF AMD
KATL 301400Z 3014/3118 34008KT P6SM SKC
      TEMPO 3014/3016 SCT025
     FM310200 31005KT P6SM FEW250
     FM311200 32006KT P6SM SCT120=



000
FTUS42 KFFC 301100
TAFAHN
TAF
KAHN 301120Z 3012/3112 VRB03KT P6SM SKC
     FM301400 03006KT P6SM SKC
     FM302100 33003KT P6SM SKC
     FM310000 VRB02KT P6SM SKC=



000
FTUS42 KFFC 301100
TAFATL
TAF
KATL 301120Z 3012/3118 34008KT P6SM SKC
     FM310200 31005KT P6SM FEW250
     FM311200 32006KT P6SM SCT120=



000
FTUS42 KFFC 301100
TAFCSG
TAF
KCSG 301120Z 3012/3112 35005KT P6SM SKC
     FM301400 02006KT P6SM SKC
     FM301800 34006KT P6SM SKC
     FM310200 35002KT P6SM SKC=



000
FTUS42 KFFC 301100
TAFRYY
TAF
KRYY 301120Z 3012/3112 00000KT P6SM SKC
     FM301400 34006KT P6SM SKC
     FM310000 32002KT P6SM FEW250=



000
FTUS42 KFFC 301100
TAFMCN
TAF
KMCN 301120Z 3012/3112 34006KT P6SM SCT050
     FM301400 36008KT P6SM SKC
     FM302100 33003KT P6SM SKC=



000
FTUS42 KFFC 301100
TAFFTY
TAF
KFTY 301120Z 3012/3112 00000KT P6SM SKC
     FM301400 34006KT P6SM SKC
     FM310000 32002KT P6SM FEW250=



000
FTUS42 KFFC 301100
TAFPDK
TAF
KPDK 301120Z 3012/3112 00000KT P6SM SKC
     FM301400 34006KT P6SM SKC
     FM310000 32002KT P6SM FEW250=



000
FTUS42 KFFC 300900 AAB
TAFATL
TAF AMD
KATL 300950Z 3010/3112 34008KT P6SM SKC
     FM310200 31005KT P6SM FEW250=



000
FTUS42 KFFC 300700 AAA
TAFATL
TAF AMD
KATL 300752Z 3008/3112 32006KT P6SM SKC
     FM301400 34008KT P6SM SKC
     FM310200 31005KT P6SM FEW250=



000
FTUS42 KFFC 300500
TAFAHN
TAF
KAHN 300521Z 3006/3106 VRB03KT P6SM SKC
     FM301400 03006KT P6SM SKC
     FM302100 33003KT P6SM SKC
     FM310000 00000KT P6SM SKC=



000
FTUS42 KFFC 300500
TAFATL
TAF
KATL 300521Z 3006/3112 32006KT P6SM SKC
     FM301400 34008KT P6SM SKC
     FM310200 31005KT P6SM FEW250=



000
FTUS42 KFFC 300500
TAFMCN
TAF
KMCN 300521Z 3006/3106 34006KT P6SM SCT050
     FM301400 36008KT P6SM SKC
     FM302100 33003KT P6SM SKC=



000
FTUS42 KFFC 300500
TAFPDK
TAF
KPDK 300521Z 3006/3106 00000KT P6SM SKC
     FM301400 34006KT P6SM SKC
     FM310000 32002KT P6SM FEW250=



000
FTUS42 KFFC 300500
TAFCSG
TAF
KCSG 300521Z 3006/3106 35005KT P6SM SKC
     FM301400 02006KT P6SM SKC
     FM301800 34006KT P6SM SKC
     FM310200 35002KT P6SM SKC=



000
FTUS42 KFFC 300500
TAFRYY
TAF
KRYY 300521Z 3006/3106 00000KT P6SM SKC
     FM301400 34006KT P6SM SKC
     FM310000 32002KT P6SM FEW250
      AMD NOT SKED TIL 301200=



000
FTUS42 KFFC 300500
TAFFTY
TAF
KFTY 300521Z 3006/3106 00000KT P6SM SKC
     FM301400 34006KT P6SM SKC
     FM310000 32002KT P6SM FEW250=



000
FTUS42 KFFC 300300 AAB
TAFATL
TAF AMD
KATL 300330Z 3004/3106 32006KT P6SM SKC
     FM301400 35009KT P6SM SKC=



000
FTUS42 KFFC 300300 AAA
TAFAHN
TAF AMD
KAHN 300330Z 3004/3024 30005KT P6SM SKC
     FM301400 02007KT P6SM SKC=



000
FTUS42 KFFC 300300 AAA
TAFRYY
TAF AMD
KRYY 300330Z 3004/3024 32004KT P6SM SKC
     FM301400 35009KT P6SM SKC
      AMD NOT SKED 3004/3012=



000
FTUS42 KFFC 300100 AAA
TAFATL
TAF AMD
KATL 300136Z 3002/3106 32008KT P6SM SCT250
     FM301400 35009KT P6SM SKC=



000
FTUS42 KFFC 300100 AAA
TAFFTY
TAF AMD
KFTY 300136Z 3002/3024 32004KT P6SM SKC
     FM301400 35008KT P6SM SKC=



000
FTUS42 KFFC 300100 AAA
TAFPDK
TAF AMD
KPDK 300136Z 3002/3024 32006KT P6SM SKC
     FM301400 35008KT P6SM SKC=



000
FTUS42 KFFC 300100 AAA
TAFCSG
TAF AMD
KCSG 300136Z 3002/3024 35009KT P6SM FEW015 SCT025
      TEMPO 3002/3003 BKN025 BKN040
     FM300400 34007KT P6SM SCT045 BKN100
     FM300600 35006KT P6SM SCT100
     FM301400 36009KT P6SM SKC=



000
FTUS42 KFFC 292300
TAFMCN
TAF
KMCN 292323Z 3000/3024 25006KT P6SM VCSH FEW025 SCT040 BKN080
      TEMPO 3000/3002 SCT025 BKN040
     FM300200 27007KT P6SM SCT045 BKN100
     FM300500 33006KT P6SM SCT100
     FM301400 36009KT P6SM SKC=



000
FTUS42 KFFC 292300
TAFPDK
TAF
KPDK 292323Z 3000/3024 30008KT P6SM FEW030 SCT120
     FM300400 32004KT P6SM FEW120
     FM301400 35008KT P6SM SKC=



000
FTUS42 KFFC 292300
TAFATL
TAF
KATL 292323Z 3000/3106 32010KT P6SM FEW030 SCT120
     FM300300 33007KT P6SM FEW120
     FM301400 35009KT P6SM SKC=



000
FTUS42 KFFC 292300
TAFCSG
TAF
KCSG 292323Z 3000/3024 32009KT P6SM VCSH FEW025 SCT040 BKN080
      TEMPO 3000/3002 SCT025 BKN040
     FM300200 34007KT P6SM SCT045 BKN100
     FM300400 35006KT P6SM SCT100
     FM301400 36009KT P6SM SKC=



000
FTUS42 KFFC 292300
TAFRYY
TAF
KRYY 292323Z 3000/3024 31008KT P6SM SCT035 SCT120
     FM300400 32005KT P6SM FEW120
     FM301400 35009KT P6SM SKC
      AMD NOT SKED 3004/3012=



000
FTUS42 KFFC 292300
TAFAHN
TAF
KAHN 292323Z 3000/3024 29007KT P6SM SCT035 BKN060
     FM300200 31006KT P6SM SCT100
     FM300700 33004KT P6SM SKC
     FM301400 02007KT P6SM SKC=



000
FTUS42 KFFC 292300
TAFFTY
TAF
KFTY 292323Z 3000/3024 31009KT P6SM FEW030 SCT120
     FM300400 32004KT P6SM FEW120
     FM301400 35008KT P6SM SKC=



000
FTUS42 KFFC 292100 AAB
TAFFTY
TAF AMD
KFTY 292131Z 2922/3018 32008KT P6SM FEW015 SCT021 BKN050
      TEMPO 2922/2923 BKN021 BKN050
     FM300000 33006KT P6SM SCT100
     FM300600 33005KT P6SM SKC=



000
FTUS42 KFFC 292100 AAB
TAFRYY
TAF AMD
KRYY 292131Z 2922/3018 32008KT P6SM SCT028 BKN040
     FM300000 33006KT P6SM SCT100
     FM300600 33005KT P6SM SKC=



000
FTUS42 KFFC 292100 AAB
TAFPDK
TAF AMD
KPDK 292131Z 2922/3018 32009KT P6SM FEW015 SCT025 BKN040
      TEMPO 2922/2923 BKN025 BKN040
     FM300000 33006KT P6SM SCT100
     FM300600 33005KT P6SM SKC=



000
FTUS42 KFFC 292100 AAC
TAFATL
TAF AMD
KATL 292131Z 2922/3024 32012KT P6SM FEW015 SCT022 BKN050
      TEMPO 2922/2923 BKN022 BKN050
     FM300000 32010KT P6SM SCT080
     FM300600 34007KT P6SM SKC=



000
FTUS42 KFFC 292100 AAA
TAFAHN
TAF AMD
KAHN 292131Z 2922/3018 31008KT P6SM VCSH SCT028 BKN050
      TEMPO 2922/2923 6SM -SHRA BKN028
     FM300000 32007KT P6SM SCT100
     FM300700 33004KT P6SM SKC
     FM301300 01004KT P6SM SKC=



000
FTUS42 KFFC 292000 AAB
TAFATL
TAF AMD
KATL 292011Z 2920/3024 29010KT P6SM SCT007 BKN015 OVC035
      TEMPO 2920/2922 6SM -DZ BR BKN007 OVC015
     FM292200 30010G16KT P6SM BKN025 BKN040
     FM300000 32010KT P6SM SCT080
     FM300600 34007KT P6SM SKC=



000
FTUS42 KFFC 292000 AAA
TAFMCN
TAF AMD
KMCN 292000Z 2920/3018 19007KT P6SM VCSH SCT025 BKN035 BKN120
     FM292300 25007KT P6SM SCT045 BKN100
     FM300200 31006KT P6SM SCT100
     FM300600 35005KT P6SM SKC=



000
FTUS42 KFFC 292000 AAA
TAFPDK
TAF AMD
KPDK 292000Z 2920/3018 30010KT P6SM VCSH SCT007 BKN012 OVC035
      TEMPO 2920/2922 4SM -DZ BR BKN007 OVC012
     FM292200 32009G15KT P6SM BKN025 BKN040
     FM300000 33006KT P6SM SCT100
     FM300600 33005KT P6SM SKC=



000
FTUS42 KFFC 292000 AAA
TAFFTY
TAF AMD
KFTY 292000Z 2920/3018 29008KT P6SM VCSH SCT008 BKN015 OVC035
      TEMPO 2920/2922 4SM -DZ BR BKN008 OVC015
     FM292200 32009G15KT P6SM BKN025 BKN040
     FM300000 33006KT P6SM SCT100
     FM300600 33005KT P6SM SKC=



000
FTUS42 KFFC 292000 AAA
TAFRYY
TAF AMD
KRYY 292000Z 2920/3018 31008KT 5SM BR VCSH SCT006 BKN015 OVC035
      TEMPO 2920/2922 2SM -DZ BR BKN006 OVC015
     FM292200 32009G15KT P6SM BKN025 BKN040
     FM300000 33006KT P6SM SCT100
     FM300600 33005KT P6SM SKC=



000
FTUS42 KFFC 292000 AAA
TAFCSG
TAF AMD
KCSG 292000Z 2920/3018 28007KT P6SM VCSH SCT025 BKN035 BKN120
      TEMPO 2920/2922 BKN025 OVC035
     FM292300 33006KT P6SM SCT045 BKN100
     FM300200 34004KT P6SM SCT100
     FM300600 36005KT P6SM SKC=



000
FTUS42 KFFC 291900 AAA
TAFATL
TAF AMD
KATL 291942Z 2920/3024 27009KT P6SM SCT015 BKN025
     FM292100 30010G16KT P6SM BKN025 BKN040
     FM292300 32010KT P6SM SCT080
     FM300600 34007KT P6SM SKC=



000
FTUS42 KFFC 291700
TAFPDK
TAF
KPDK 291733Z 2918/3018 25005KT P6SM VCSH BKN015
     FM292100 32009G15KT P6SM BKN025 BKN040
     FM292300 33006KT P6SM SCT100
     FM300600 33005KT P6SM SKC=



000
FTUS42 KFFC 291700
TAFMCN
TAF
KMCN 291733Z 2918/3018 26007KT P6SM VCSH BKN050 BKN250
     FM292300 30005KT P6SM SCT045 BKN100
     FM300200 34004KT P6SM SCT100
     FM300600 35005KT P6SM SKC=



000
FTUS42 KFFC 291700
TAFATL
TAF
KATL 291733Z 2918/3024 25009KT P6SM VCSH FEW007 BKN015
     FM292100 30010G16KT P6SM BKN025 BKN040
     FM292300 32010KT P6SM SCT080
     FM300600 34007KT P6SM SKC=



000
FTUS42 KFFC 291700
TAFCSG
TAF
KCSG 291733Z 2918/3018 28007KT P6SM VCSH BKN050 BKN250
     FM292300 33006KT P6SM SCT045 BKN100
     FM300200 34004KT P6SM SCT100
     FM300600 36005KT P6SM SKC=



000
FTUS42 KFFC 291700
TAFFTY
TAF
KFTY 291733Z 2918/3018 25005KT P6SM VCSH BKN015
     FM292100 32009G15KT P6SM BKN025 BKN040
     FM292300 33006KT P6SM SCT100
     FM300600 33005KT P6SM SKC=



000
FTUS42 KFFC 291700
TAFAHN
TAF
KAHN 291733Z 2918/3018 25007KT P6SM VCSH BKN050
     FM292300 29007KT P6SM SCT100
     FM300700 33004KT P6SM SKC
     FM301300 01004KT P6SM SKC=



000
FTUS42 KFFC 291700
TAFRYY
TAF
KRYY 291733Z 2918/3018 25005KT P6SM VCSH BKN015
     FM292100 32009G15KT P6SM BKN025 BKN040
     FM292300 33006KT P6SM SCT100
     FM300600 33005KT P6SM SKC=



000
FTUS42 KFFC 291500 AAB
TAFATL
TAF AMD
KATL 291549Z 2916/3018 26008KT 5SM -SHRA BR BKN035
     FM291800 28009KT P6SM VCSH BKN015
     FM292100 30010G16KT P6SM BKN025 BKN040
     FM292300 31010KT P6SM SCT100
     FM300600 33008KT P6SM SKC
     FM301200 34005KT P6SM SKC=



000
FTUS42 KFFC 291500 AAA
TAFRYY
TAF AMD
KRYY 291542Z 2916/3012 26006KT 5SM -SHRA BR BKN035
     FM291700 30008KT P6SM VCSH BKN015
     FM292000 33010G16KT P6SM BKN025 BKN040
     FM292200 33010KT P6SM SCT100
     FM300400 33008KT P6SM SKC=



000
FTUS42 KFFC 291500 AAB
TAFAHN
TAF AMD
KAHN 291542Z 2916/3012 25007KT 6SM BR VCSH BKN035
     FM291900 28009KT P6SM VCSH BKN035
     FM292100 33010G15KT P6SM SCT025 BKN040
     FM300000 33010KT P6SM SCT100=



000
FTUS42 KFFC 291500 AAA
TAFFTY
TAF AMD
KFTY 291541Z 2916/3012 26006KT 5SM -SHRA BR BKN035
     FM291800 30008KT P6SM VCSH BKN015
     FM292100 33009G15KT P6SM BKN025 BKN040
     FM292300 33010KT P6SM SCT100
     FM300600 33008KT P6SM SKC=



000
FTUS42 KFFC 291500 AAA
TAFPDK
TAF AMD
KPDK 291541Z 2916/3012 24006KT 5SM -SHRA BR BKN035
     FM291800 30008KT P6SM VCSH BKN015
     FM292100 33010G16KT P6SM BKN025 BKN040
     FM292300 33010KT P6SM SCT100
     FM300600 33008KT P6SM SKC=



000
FTUS42 KFFC 291400 AAA
TAFAHN
TAF AMD
KAHN 291455Z 2915/3012 23003KT P6SM BKN040
     FM291600 25007KT 5SM -SHRA BR BKN025
     FM291900 28009KT P6SM VCSH BKN035
     FM292100 33010G15KT P6SM SCT025 BKN040
     FM300000 33010KT P6SM SCT100=



000
FTUS42 KFFC 291400 AAA
TAFATL
TAF AMD
KATL 291402Z 2914/3018 24008KT 5SM -SHRA BKN015
     FM291800 30009KT P6SM VCSH BKN020
     FM292100 33010G16KT P6SM SCT025 BKN040
     FM292300 33010KT P6SM SCT100
     FM300600 33008KT P6SM SKC
     FM301200 34005KT P6SM SKC=



000
FTUS42 KFFC 291200 AAA
TAFCSG
TAF AMD
KCSG 291258Z 2913/3012 24004KT 6SM BR SCT015 BKN050
     FM291800 27007KT P6SM VCSH BKN025
     FM292200 31008G14KT P6SM SCT025 BKN045
     FM300200 33008KT P6SM SCT100=



000
FTUS42 KFFC 291200 AAA
TAFMCN
TAF AMD
KMCN 291257Z 2913/3012 22003KT 5SM BR FEW050 BKN250
     FM291400 23003KT P6SM BKN050 BKN250
     FM291900 26006KT P6SM VCSH SCT045 BKN100
     FM300200 33010KT P6SM SCT100=



000
FTUS42 KFFC 291100
TAFMCN
TAF
KMCN 291132Z 2912/3012 22003KT 5SM BR FEW050 BKN250
      TEMPO 2912/2914 2SM BR
     FM291400 23003KT P6SM BKN050 BKN250
     FM291900 26006KT P6SM VCSH SCT045 BKN100
     FM300200 33010KT P6SM SCT100=



000
FTUS42 KFFC 291100
TAFFTY
TAF
KFTY 291132Z 2912/3012 00000KT P6SM BKN060 BKN250
     FM291300 26006KT 5SM -SHRA BKN015
     FM291800 30008KT P6SM VCSH BKN020
     FM292100 33009G15KT P6SM SCT025 BKN040
     FM292300 33010KT P6SM SCT100
     FM300600 33008KT P6SM SKC=



000
FTUS42 KFFC 291100
TAFRYY
TAF
KRYY 291132Z 2912/3012 00000KT P6SM BKN040 BKN250
     FM291230 26006KT 5SM -SHRA BKN015
     FM291700 30008KT P6SM VCSH BKN025
     FM292000 33010G16KT P6SM SCT025 BKN040
     FM292200 33010KT P6SM SCT100
     FM300400 33008KT P6SM SKC=



000
FTUS42 KFFC 291100
TAFCSG
TAF
KCSG 291132Z 2912/3012 24004KT 6SM BR BKN015
     FM291800 27007KT P6SM VCSH BKN025
     FM292200 31008G14KT P6SM SCT025 BKN045
     FM300200 33008KT P6SM SCT100=



000
FTUS42 KFFC 291100
TAFPDK
TAF
KPDK 291132Z 2912/3012 00000KT P6SM SCT060 SCT250
     FM291300 24006KT 5SM -SHRA BKN015
     FM291800 30008KT P6SM VCSH BKN020
     FM292100 33010G16KT P6SM SCT025 BKN040
     FM292300 33010KT P6SM SCT100
     FM300600 33008KT P6SM SKC=



000
FTUS42 KFFC 291100
TAFAHN
TAF
KAHN 291132Z 2912/3012 24003KT 4SM BR BKN050
     FM291300 23003KT 4SM BR BKN030
     FM291400 25007KT 5SM -SHRA BR BKN025
     FM291900 28009KT P6SM VCSH BKN035
     FM292100 33010G15KT P6SM SCT025 BKN040
     FM300000 33010KT P6SM SCT100=



000
FTUS42 KFFC 291100
TAFATL
TAF
KATL 291132Z 2912/3018 22004KT P6SM SCT060 BKN250
     FM291300 24008KT 5SM -SHRA BKN015
     FM291800 30009KT P6SM VCSH BKN020
     FM292100 33010G16KT P6SM SCT025 BKN040
     FM292300 33010KT P6SM SCT100
     FM300600 33008KT P6SM SKC
     FM301200 34005KT P6SM SKC=



000
FTUS42 KFFC 291100 AAA
TAFMCN
TAF AMD
KMCN 291104Z 2911/3006 22003KT P6SM FEW050 BKN250
     FM291300 23003KT P6SM SCT100 BKN250
     FM291900 26006KT P6SM VCSH SCT045 BKN100
     FM300200 33010KT P6SM SCT100=



000
FTUS42 KFFC 291100 AAA
TAFCSG
TAF AMD
KCSG 291104Z 2911/3006 22003KT 6SM BR SCT015 BKN019
     FM291400 24005KT 6SM BR BKN015
     FM291800 27007KT P6SM VCSH BKN025
     FM292200 31008G14KT P6SM SCT025 BKN045
     FM300200 33008KT P6SM SCT100=



000
FTUS42 KFFC 290900 AAB
TAFATL
TAF AMD
KATL 290957Z 2910/3012 22004KT P6SM SCT040 BKN250
     FM291400 24008KT 5SM -SHRA BKN015
     FM291800 30009KT P6SM VCSH BKN025
     FM292100 33010G16KT P6SM SCT025 BKN040
     FM292300 33010KT P6SM SCT100
     FM300600 33008KT P6SM SKC=



000
FTUS42 KFFC 290900 AAA
TAFRYY
TAF AMD
KRYY 290952Z 2910/3006 00000KT 5SM BR FEW025 BKN250
     FM291300 26006KT 5SM -SHRA BKN015
     FM291700 30008KT P6SM VCSH BKN025
     FM292000 33010G16KT P6SM SCT025 BKN040
     FM292200 33010KT P6SM SCT100=



000
FTUS42 KFFC 290900 AAA
TAFPDK
TAF AMD
KPDK 290952Z 2910/3006 00000KT 5SM BR FEW025 SCT250
     FM291400 24006KT 5SM -SHRA BKN015
     FM291800 30008KT P6SM VCSH BKN025
     FM292100 33010G16KT P6SM SCT025 BKN040
     FM292300 33010KT P6SM SCT100=



000
FTUS42 KFFC 290900 AAA
TAFFTY
TAF AMD
KFTY 290952Z 2910/3006 00000KT P6SM FEW025 SCT250
     FM291400 26006KT 5SM -SHRA BKN015
     FM291800 30008KT P6SM VCSH BKN025
     FM292100 33009G15KT P6SM SCT025 BKN040
     FM292300 33010KT P6SM SCT100=



000
FTUS42 KFFC 290800 AAA
TAFATL
TAF AMD
KATL 290803Z 2908/3012 23003KT P6SM FEW045 BKN250
     FM291000 22004KT 5SM BR FEW025 SCT040 BKN250
     FM291200 24005KT 5SM BR BKN008 BKN025
     FM291500 25008KT 5SM -SHRA BKN015
     FM291800 30009KT P6SM VCSH BKN025
     FM292100 33010G16KT P6SM SCT025 BKN040
     FM292300 33010KT P6SM SCT100
     FM300600 33008KT P6SM SKC=



000
FTUS42 KFFC 290500
TAFCSG
TAF
KCSG 290520Z 2906/3006 VRB03KT P6SM BKN250
     FM290800 00000KT 5SM BR FEW025 BKN250
     FM291100 22003KT 3SM BR BKN010
     FM291400 24005KT 6SM BR BKN015
     FM291800 27007KT P6SM VCSH BKN025
     FM292200 31008G14KT P6SM SCT025 BKN045
     FM300200 33008KT P6SM SCT100=



000
FTUS42 KFFC 290500
TAFFTY
TAF
KFTY 290520Z 2906/3006 22004KT P6SM FEW045 BKN250
     FM290900 00000KT 5SM BR FEW025 SCT040 BKN250
     FM291200 24003KT 3SM BR BKN008 BKN025
     FM291500 26006KT 5SM -SHRA BKN015
     FM291800 30008KT P6SM VCSH BKN025
     FM292100 33009G15KT P6SM SCT025 BKN040
     FM292300 33010KT P6SM SCT100=



000
FTUS42 KFFC 290500
TAFPDK
TAF
KPDK 290520Z 2906/3006 22004KT 6SM BR FEW045 BKN250
     FM290900 00000KT 5SM BR FEW025 SCT040 BKN250
     FM291200 22003KT 3SM BR BKN008 BKN025
     FM291500 24006KT 5SM -SHRA BKN015
     FM291800 30008KT P6SM VCSH BKN025
     FM292100 33010G16KT P6SM SCT025 BKN040
     FM292300 33010KT P6SM SCT100=



000
FTUS42 KFFC 290500
TAFRYY
TAF
KRYY 290520Z 2906/3006 22004KT P6SM FEW045 BKN250
     FM290900 00000KT 5SM BR FEW025 SCT040 BKN250
     FM291100 23003KT 3SM BR BKN008 BKN025
     FM291400 26006KT 5SM -SHRA BKN015
     FM291700 30008KT P6SM VCSH BKN025
     FM292000 33010G16KT P6SM SCT025 BKN040
     FM292200 33010KT P6SM SCT100
      AMD NOT SKED TIL 291200=



000
FTUS42 KFFC 290500
TAFAHN
TAF
KAHN 290520Z 2906/3006 23003KT P6SM BKN250
     FM290900 24003KT 4SM BR SCT200
     FM291300 23003KT 4SM BR BKN030
     FM291600 25007KT 5SM -SHRA BR BKN025
     FM291900 28009KT P6SM VCSH BKN035
     FM292200 33010G15KT P6SM SCT025 BKN040
     FM300000 33010KT P6SM SCT100=



000
FTUS42 KFFC 290500
TAFMCN
TAF
KMCN 290520Z 2906/3006 00000KT 5SM BR BKN250
     FM291100 22003KT 3SM BR BKN250
     FM291300 23003KT P6SM SCT100 BKN250
     FM291900 26006KT P6SM VCSH SCT045 BKN100
     FM300200 33010KT P6SM SCT100=



000
FTUS42 KFFC 290500
TAFATL
TAF
KATL 290520Z 2906/3012 23003KT P6SM FEW045 BKN250
     FM290900 22004KT 5SM BR FEW025 SCT040 BKN250
     FM291200 24005KT 5SM BR BKN008 BKN025
     FM291500 25008KT 5SM -SHRA BKN015
     FM291800 30009KT P6SM VCSH BKN025
     FM292100 33010G16KT P6SM SCT025 BKN040
     FM292300 33010KT P6SM SCT100
     FM300600 33008KT P6SM SKC=



000
FTUS42 KFFC 290300 AAB
TAFATL
TAF AMD
KATL 290330Z 2904/3006 20003KT P6SM FEW045 BKN250
     FM290900 22004KT 5SM BR FEW025 SCT040 BKN250
     FM291200 24005KT 5SM BR BKN008 BKN025
     FM291500 25008KT 5SM -SHRA BKN015
     FM291700 30009KT P6SM VCSH BKN025
     FM292100 33010G16KT P6SM SCT025 BKN040
     FM292300 33010KT P6SM SCT100=



000
FTUS42 KFFC 290100 AAA
TAFATL
TAF AMD
KATL 290133Z 2902/3006 21003KT P6SM FEW045 BKN250
     FM290900 22004KT 5SM BR FEW025 SCT040 BKN250
     FM291200 24005KT 5SM BR BKN008 BKN025
     FM291500 25008KT 5SM -SHRA BKN015
     FM291700 30009KT P6SM VCSH BKN025
     FM292100 33010G16KT P6SM SCT025 BKN040
     FM292300 33010KT P6SM SCT100=



000
FTUS42 KFFC 290100 AAA
TAFMCN
TAF AMD
KMCN 290133Z 2902/2924 00000KT P6SM SCT250
     FM290600 00000KT 5SM BR BKN250
     FM291100 22003KT 3SM BR BKN250
     FM291300 23003KT P6SM SCT100 BKN250
     FM291900 26006KT P6SM VCSH SCT045 BKN100=



000
FTUS42 KFFC 290100 AAA
TAFATL
TAF AMD
KATL 290133Z 2902/3006 21003KT P6SM FEW045 BKN250
     FM290900 22004KT 5SM BR FEW025 SCT040 BKN250
     FM291200 24005KT 5SM BR BKN008 BKN025
     FM291500 25008KT 5SM -SHRA BKN015
     FM291700 30009KT P6SM VCSH BKN025
     FM292100 33010G16KT P6SM SCT025 BKN040
     FM292300 33010KT P6SM SCT100=



000
FTUS42 KFFC 290100 AAA
TAFMCN
TAF AMD
KMCN 290133Z 2902/2924 00000KT P6SM SCT250
     FM290600 00000KT 5SM BR BKN250
     FM291100 22003KT 3SM BR BKN250
     FM291300 23003KT P6SM SCT100 BKN250
     FM291900 26006KT P6SM VCSH SCT045 BKN100=



000
FTUS42 KFFC 282300
TAFCSG
TAF
KCSG 282325Z 2900/2924 VRB03KT P6SM BKN250
     FM290800 00000KT 5SM BR FEW025 BKN250
     FM291100 22003KT 3SM BR BKN010
     FM291400 24005KT 6SM BR BKN015
     FM291800 27007KT P6SM VCSH BKN025
     FM292200 31008G14KT P6SM SCT025 BKN045=



000
FTUS42 KFFC 282300
TAFMCN
TAF
KMCN 282325Z 2900/2924 VRB03KT P6SM SCT250
     FM290800 00000KT 5SM BR BKN250
     FM291100 22003KT 3SM BR BKN250
     FM291300 23003KT P6SM SCT100 BKN250
     FM291900 26006KT P6SM VCSH SCT045 BKN100=



000
FTUS42 KFFC 282300
TAFAHN
TAF
KAHN 282325Z 2900/2924 23003KT P6SM BKN250
     FM290900 24003KT 4SM BR SCT200
     FM291300 23003KT 4SM BR BKN030
     FM291600 25007KT 5SM -SHRA BR BKN025
     FM291900 28009KT P6SM VCSH BKN035
     FM292200 33010G15KT P6SM SCT025 BKN040=



000
FTUS42 KFFC 282300
TAFRYY
TAF
KRYY 282325Z 2900/2924 22004KT P6SM FEW045 BKN250
     FM290900 00000KT 5SM BR FEW025 SCT040 BKN250
     FM291100 23003KT 3SM BR BKN008 BKN025
     FM291400 26006KT 5SM -SHRA BKN015
     FM291700 30008KT P6SM VCSH BKN025
     FM292000 33010G16KT P6SM SCT025 BKN040
      AMD NOT SKED 2904/2912=



000
FTUS42 KFFC 282300
TAFFTY
TAF
KFTY 282325Z 2900/2924 22004KT P6SM FEW045 BKN250
     FM290900 00000KT 5SM BR FEW025 SCT040 BKN250
     FM291200 24003KT 3SM BR BKN008 BKN025
     FM291500 26006KT 5SM -SHRA BKN015
     FM291700 30008KT P6SM VCSH BKN025
     FM292100 33009G15KT P6SM SCT025 BKN040=



000
FTUS42 KFFC 282300
TAFPDK
TAF
KPDK 282325Z 2900/2924 22004KT P6SM FEW045 BKN250
     FM290900 00000KT 5SM BR FEW025 SCT040 BKN250
     FM291200 22003KT 3SM BR BKN008 BKN025
     FM291500 24006KT 5SM -SHRA BKN015
     FM291700 30008KT P6SM VCSH BKN025
     FM292100 33010G16KT P6SM SCT025 BKN040=



000
FTUS42 KFFC 282300
TAFATL
TAF
KATL 282325Z 2900/3006 21005KT P6SM FEW045 BKN250
     FM290900 22005KT 5SM BR FEW025 SCT040 BKN250
     FM291200 24005KT 5SM BR BKN008 BKN025
     FM291500 25008KT 5SM -SHRA BKN015
     FM291700 30009KT P6SM VCSH BKN025
     FM292100 33010G16KT P6SM SCT025 BKN040
     FM292300 33010KT P6SM SCT100=



000
FTUS42 KFFC 282100 AAA
TAFMCN
TAF AMD
KMCN 282148Z 2822/2918 25005KT P6SM FEW050 SCT250
     FM290800 24003KT 5SM BR SCT250
     FM291100 00000KT 2SM BR SCT250
     FM291300 00000KT P6SM SCT100
     FM291700 26006KT P6SM VCSH SCT045=



000
FTUS42 KFFC 282100 AAA
TAFRYY
TAF AMD
KRYY 282148Z 2822/2918 23005KT P6SM FEW040 BKN250
     FM290900 00000KT 5SM BR SCT060 BKN250
     FM291200 26003KT 3SM BR BKN008 BKN025
     FM291500 27006KT 5SM -SHRA BKN015
     FM291700 30008KT 5SM BR VCSH BKN025=



000
FTUS42 KFFC 282100 AAB
TAFATL
TAF AMD
KATL 282148Z 2822/2924 24005KT P6SM FEW045 BKN250
     FM290900 24005KT 5SM BR SCT060 BKN250
     FM291200 26005KT 5SM BR BKN008 BKN025
     FM291500 27008KT 5SM -SHRA BKN015
     FM291700 30009KT 5SM BR VCSH BKN025
     FM292100 33010G16KT P6SM SCT025 BKN040
     FM292300 33010KT P6SM SCT100=



000
FTUS42 KFFC 281900 AAA
TAFATL
TAF AMD
KATL 281947Z 2820/2924 29006KT P6SM FEW040 SCT250
     FM290900 24005KT 5SM BR SCT060 BKN250
     FM291200 26005KT 5SM BR BKN008 BKN025
     FM291500 27008KT 5SM -SHRA BKN015
     FM291700 30009KT 5SM BR VCSH BKN025
     FM292100 33010G16KT P6SM SCT025 BKN040
     FM292300 33010KT P6SM SCT100=



000
FTUS42 KFFC 281700 RRA
TAFRYY
TAF
KRYY 281747Z 2818/2918 27006KT P6SM FEW020 SCT250
     FM282000 25005KT P6SM FEW040 SCT250
     FM290900 00000KT 5SM BR SCT060 BKN250
     FM291200 26003KT 3SM BR BKN008 BKN025
     FM291500 27006KT 5SM -SHRA BKN015
     FM291700 30008KT 5SM BR VCSH BKN025=



000
FTUS42 KFFC 281700 RRA
TAFCSG
TAF
KCSG 281747Z 2818/2918 23005KT P6SM SCT015 SCT250
     FM282000 24004KT P6SM SCT040 SCT250
     FM290100 23004KT P6SM SCT250
     FM290700 00000KT 5SM BR BKN250
     FM291100 00000KT 2SM BR BKN010
     FM291400 00000KT 3SM BR BKN015
     FM291700 27005KT 5SM BR VCSH BKN025=



000
FTUS42 KFFC 281700 RRA
TAFAHN
TAF
KAHN 281747Z 2818/2918 25005KT P6SM SKC
     FM290000 21003KT P6SM SCT250
     FM290900 24005KT 4SM BR SCT200
     FM291300 23003KT 4SM BR BKN050
     FM291600 26006KT 5SM BR VCSH BKN035=



000
FTUS42 KFFC 281700 RRA
TAFFTY
TAF
KFTY 281747Z 2818/2918 27006KT P6SM FEW020 SCT250
     FM282000 25005KT P6SM FEW040 SCT250
     FM290900 00000KT 5SM BR SCT060 BKN250
     FM291200 26003KT 3SM BR BKN008 BKN025
     FM291500 27006KT 5SM -SHRA BKN015
     FM291700 30008KT 5SM BR VCSH BKN025=



000
FTUS42 KFFC 281700 RRA
TAFMCN
TAF
KMCN 281747Z 2818/2918 24008KT P6SM FEW250
     FM290000 23004KT P6SM SCT250
     FM290800 24003KT 5SM BR SCT250
     FM291100 00000KT 2SM BR SCT250
     FM291300 00000KT P6SM SCT100
     FM291700 26006KT P6SM VCSH SCT045=



000
FTUS42 KFFC 281700 RRA
TAFPDK
TAF
KPDK 281747Z 2818/2918 27006KT P6SM FEW020 SCT250
     FM282000 25005KT P6SM FEW040 SCT250
     FM290900 00000KT 5SM BR SCT060 BKN250
     FM291200 26003KT 3SM BR BKN008 BKN025
     FM291500 27006KT 5SM -SHRA BKN015
     FM291700 30008KT 5SM BR VCSH BKN025=



000
FTUS42 KFFC 281700 RRA
TAFATL
TAF
KATL 281747Z 2818/2924 27008KT P6SM FEW020 SCT250
     FM282000 25006KT P6SM FEW040 SCT250
     FM290900 24005KT 5SM BR SCT060 BKN250
     FM291200 26005KT 5SM BR BKN008 BKN025
     FM291500 27008KT 5SM -SHRA BKN015
     FM291700 30009KT 5SM BR VCSH BKN025
     FM292100 33010G16KT P6SM SCT025 BKN040
     FM292300 33010KT P6SM SCT100=



000
FTUS42 KFFC 281500 AAB
TAFATL
TAF AMD
KATL 281552Z 2816/2918 23008KT 5SM HZ SCT007 SCT250
     FM281700 23008KT P6SM FEW015 SCT250
     FM290100 23004KT P6SM SCT200
     FM290900 24005KT 5SM BR SCT200
     FM291200 26005KT 5SM BR BKN008 BKN025
     FM291500 30008KT 5SM -SHRA BKN015=



000
FTUS42 KFFC 281500 AAB
TAFATL
TAF AMD
KATL 281552Z 2816/2918 23008KT 5SM HZ SCT007 SCT250
     FM281700 23008KT P6SM FEW015 SCT250
     FM290100 23004KT P6SM SCT200
     FM290900 24005KT 5SM BR SCT200
     FM291200 26005KT 5SM BR BKN008 BKN025
     FM291500 30008KT 5SM -SHRA BKN015=



000
FTUS42 KFFC 281500 AAA
TAFFTY
TAF AMD
KFTY 281543Z 2816/2912 22003KT P6SM SCT006
      TEMPO 2816/2817 5SM BR BKN006
     FM281700 23007KT P6SM FEW040 FEW250
     FM290100 23003KT P6SM SCT200
     FM290900 24005KT 5SM BR SCT200
     FM291100 26005KT 5SM BR BKN008 BKN025=



000
FTUS42 KFFC 281500 AAA
TAFFTY
TAF AMD
KFTY 281543Z 2816/2912 22003KT P6SM SCT006
      TEMPO 2816/2817 5SM BR BKN006
     FM281700 23007KT P6SM FEW040 FEW250
     FM290100 23003KT P6SM SCT200
     FM290900 24005KT 5SM BR SCT200
     FM291100 26005KT 5SM BR BKN008 BKN025=



000
FTUS42 KFFC 281500 AAA
TAFRYY
TAF AMD
KRYY 281543Z 2816/2912 22003KT P6SM SCT015
      TEMPO 2816/2817 5SM BR BKN015
     FM281700 23007KT P6SM FEW040 FEW250
     FM290100 23003KT P6SM SCT200
     FM290900 24005KT 5SM BR SCT200
     FM291100 26005KT 5SM BR BKN008 BKN025=



000
FTUS42 KFFC 281500 AAA
TAFRYY
TAF AMD
KRYY 281543Z 2816/2912 22003KT P6SM SCT015
      TEMPO 2816/2817 5SM BR BKN015
     FM281700 23007KT P6SM FEW040 FEW250
     FM290100 23003KT P6SM SCT200
     FM290900 24005KT 5SM BR SCT200
     FM291100 26005KT 5SM BR BKN008 BKN025=



000
FTUS42 KFFC 281400 AAB
TAFCSG
TAF AMD
KCSG 281401Z 2814/2912 00000KT 1/2SM FG OVC003
     FM281600 22005KT P6SM BKN015
     FM281800 24006KT P6SM SCT025
     FM282000 24006KT P6SM SCT040 SCT200
     FM290100 23004KT P6SM SCT200=



    US Dept of Commerce
    National Oceanic and Atmospheric Administration
    National Weather Service
    1325 East West Highway
    Silver Spring, MD 20910
    Page Author: NWS Internet Services Team
Disclaimer
Information Quality
Credits
Glossary
Privacy Policy
Freedom of Information Act (FOIA)
About Us
Career Opportunities